createdAt,value
2022-10-18T00:01:05.460Z,8.78
2022-10-18T00:03:33.952Z,8.77
2022-10-18T00:06:02.043Z,8.70
2022-10-18T00:08:29.636Z,8.68
2022-10-18T00:10:57.924Z,8.61
2022-10-18T00:13:26.728Z,8.46
2022-10-18T00:15:57.780Z,8.36
2022-10-18T00:18:25.665Z,8.32
2022-10-18T00:21:01.479Z,8.16
2022-10-18T00:23:31.020Z,8.13
2022-10-18T00:26:03.473Z,8.27
2022-10-18T00:28:32.627Z,8.28
2022-10-18T00:31:36.586Z,8.37
2022-10-18T00:34:10.103Z,8.37
2022-10-18T00:36:37.556Z,8.29
2022-10-18T00:39:07.510Z,8.10
2022-10-18T00:41:37.977Z,8.14
2022-10-18T00:44:11.208Z,8.04
2022-10-18T00:46:45.786Z,8.04
2022-10-18T00:49:25.095Z,8.06
2022-10-18T00:52:00.353Z,7.90
2022-10-18T00:54:30.988Z,7.87
2022-10-18T00:56:58.828Z,8.06
2022-10-18T00:59:26.727Z,8.10
2022-10-18T01:01:54.759Z,8.09
2022-10-18T01:04:22.616Z,8.09
2022-10-18T01:09:45.992Z,8.14
2022-10-18T01:12:33.109Z,8.09
2022-10-18T01:15:26.471Z,8.03
2022-10-18T01:18:33.200Z,7.97
2022-10-18T01:21:43.707Z,8.01
2022-10-18T01:24:45.178Z,7.88
2022-10-18T01:27:37.763Z,7.98
2022-10-18T01:30:41.312Z,7.96
2022-10-18T01:33:46.165Z,7.98
2022-10-18T01:36:25.845Z,7.93
2022-10-18T01:38:57.539Z,7.99
2022-10-18T01:41:27.136Z,7.97
2022-10-18T01:43:59.544Z,7.81
2022-10-18T01:46:28.814Z,7.79
2022-10-18T01:48:57.364Z,7.67
2022-10-18T01:51:26.275Z,7.69
2022-10-18T01:53:54.391Z,7.61
2022-10-18T01:56:41.241Z,7.54
2022-10-18T01:59:17.665Z,7.70
2022-10-18T02:02:34.649Z,7.65
2022-10-18T02:05:14.014Z,7.49
2022-10-18T02:07:41.328Z,7.64
2022-10-18T02:10:42.542Z,7.75
2022-10-18T02:13:13.468Z,7.86
2022-10-18T02:15:45.628Z,7.87
2022-10-18T02:18:25.533Z,8.04
2022-10-18T02:20:54.845Z,8.07
2022-10-18T02:23:25.275Z,7.94
2022-10-18T02:25:53.908Z,7.90
2022-10-18T02:28:22.157Z,8.00
2022-10-18T02:31:11.184Z,8.00
2022-10-18T02:33:57.116Z,8.05
2022-10-18T02:36:52.578Z,8.05
2022-10-18T02:39:26.367Z,7.97
2022-10-18T02:41:55.039Z,7.83
2022-10-18T02:44:23.348Z,7.79
2022-10-18T02:46:51.286Z,7.72
2022-10-18T02:49:18.670Z,7.68
2022-10-18T02:51:46.301Z,7.59
2022-10-18T02:54:13.795Z,7.47
2022-10-18T02:56:41.246Z,7.33
2022-10-18T02:59:09.256Z,7.43
2022-10-18T03:01:36.733Z,7.47
2022-10-18T03:04:04.984Z,7.48
2022-10-18T03:06:33.348Z,7.37
2022-10-18T03:09:05.616Z,7.36
2022-10-18T03:11:33.313Z,7.25
2022-10-18T03:14:00.701Z,7.20
2022-10-18T03:16:28.042Z,7.21
2022-10-18T03:18:55.757Z,7.20
2022-10-18T03:21:23.125Z,7.15
2022-10-18T03:23:50.557Z,7.15
2022-10-18T03:26:18.364Z,7.06
2022-10-18T03:28:45.819Z,6.83
2022-10-18T03:31:13.284Z,6.72
2022-10-18T03:33:40.932Z,6.68
2022-10-18T03:36:08.367Z,6.65
2022-10-18T03:38:35.716Z,6.59
2022-10-18T03:41:03.493Z,6.50
2022-10-18T03:43:30.804Z,6.54
2022-10-18T03:45:58.300Z,6.46
2022-10-18T03:48:26.072Z,6.31
2022-10-18T03:50:53.433Z,6.34
2022-10-18T03:53:20.872Z,6.31
2022-10-18T03:55:56.008Z,6.38
2022-10-18T03:58:24.438Z,6.39
2022-10-18T04:00:53.541Z,6.50
2022-10-18T04:03:22.584Z,6.45
2022-10-18T04:05:50.356Z,6.42
2022-10-18T04:08:18.459Z,6.53
2022-10-18T04:10:46.547Z,6.48
2022-10-18T04:13:14.198Z,6.53
2022-10-18T04:15:41.579Z,6.69
2022-10-18T04:18:09.347Z,6.77
2022-10-18T04:20:36.750Z,6.90
2022-10-18T04:23:04.098Z,6.97
2022-10-18T04:25:31.868Z,7.07
2022-10-18T04:27:59.399Z,7.12
2022-10-18T04:30:26.801Z,7.18
2022-10-18T04:32:54.407Z,7.23
2022-10-18T04:35:24.486Z,7.23
2022-10-18T04:37:51.965Z,7.36
2022-10-18T04:40:22.795Z,7.44
2022-10-18T04:42:50.285Z,7.49
2022-10-18T04:45:17.636Z,7.54
2022-10-18T04:47:45.236Z,7.55
2022-10-18T04:50:13.080Z,7.53
2022-10-18T04:52:41.293Z,7.55
2022-10-18T04:55:09.068Z,7.63
2022-10-18T04:57:36.417Z,7.71
2022-10-18T05:00:04.983Z,7.74
2022-10-18T05:02:32.983Z,7.83
2022-10-18T05:05:00.469Z,7.90
2022-10-18T05:07:27.831Z,7.98
2022-10-18T05:09:57.588Z,8.02
2022-10-18T05:12:25.016Z,8.07
2022-10-18T05:14:52.336Z,8.09
2022-10-18T05:17:20.107Z,8.16
2022-10-18T05:19:47.537Z,8.24
2022-10-18T05:22:14.870Z,8.29
2022-10-18T05:24:42.516Z,8.24
2022-10-18T05:27:11.120Z,8.22
2022-10-18T05:29:38.613Z,8.17
2022-10-18T05:32:06.248Z,8.19
2022-10-18T05:34:33.701Z,8.18
2022-10-18T05:37:01.431Z,8.15
2022-10-18T05:39:29.724Z,8.18
2022-10-18T05:41:58.137Z,8.31
2022-10-18T05:44:25.696Z,8.40
2022-10-18T05:46:53.392Z,8.46
2022-10-18T05:49:21.295Z,8.54
2022-10-18T05:51:48.827Z,8.68
2022-10-18T05:54:19.063Z,8.73
2022-10-18T05:56:46.969Z,8.83
2022-10-18T05:59:14.425Z,8.92
2022-10-18T06:01:43.004Z,8.99
2022-10-18T06:04:10.729Z,9.04
2022-10-18T06:06:38.873Z,9.12
2022-10-18T06:09:08.343Z,9.13
2022-10-18T06:11:36.916Z,9.09
2022-10-18T06:14:05.018Z,9.15
2022-10-18T06:16:32.844Z,9.31
2022-10-18T06:19:00.922Z,9.28
2022-10-18T06:21:28.268Z,9.41
2022-10-18T06:23:58.278Z,9.39
2022-10-18T06:26:27.882Z,9.58
2022-10-18T06:28:55.413Z,9.39
2022-10-18T06:31:22.927Z,9.55
2022-10-18T06:33:50.814Z,9.47
2022-10-18T06:36:22.044Z,9.72
2022-10-18T06:38:50.338Z,9.71
2022-10-18T06:41:19.537Z,9.82
2022-10-18T06:43:51.240Z,9.83
2022-10-18T06:46:19.585Z,10.26
2022-10-18T06:48:47.722Z,10.47
2022-10-18T06:51:15.385Z,10.56
2022-10-18T06:53:53.439Z,10.76
2022-10-18T06:56:30.734Z,11.29
2022-10-18T07:01:30.892Z,11.70
2022-10-18T07:03:58.586Z,11.61
2022-10-18T07:06:26.064Z,11.78
2022-10-18T07:08:54.250Z,11.81
2022-10-18T07:11:25.146Z,11.94
2022-10-18T07:13:54.499Z,12.01
2022-10-18T07:16:22.209Z,12.08
2022-10-18T07:18:51.353Z,12.18
2022-10-18T07:21:22.244Z,12.24
2022-10-18T07:23:51.216Z,12.35
2022-10-18T07:26:23.443Z,12.50
2022-10-18T07:28:55.310Z,12.61
2022-10-18T07:31:24.149Z,12.75
2022-10-18T07:33:52.428Z,12.90
2022-10-18T07:36:22.059Z,13.04
2022-10-18T07:38:51.892Z,13.19
2022-10-18T07:41:20.408Z,13.32
2022-10-18T07:43:50.791Z,13.46
2022-10-18T07:46:22.822Z,13.59
2022-10-18T07:48:53.532Z,13.76
2022-10-18T07:51:21.359Z,13.89
2022-10-18T07:53:48.788Z,13.97
2022-10-18T07:56:21.391Z,14.13
2022-10-18T07:58:52.137Z,14.26
2022-10-18T08:01:23.016Z,14.33
2022-10-18T08:03:51.705Z,14.44
2022-10-18T08:06:21.066Z,14.56
2022-10-18T08:08:48.670Z,14.65
2022-10-18T08:11:19.167Z,14.78
2022-10-18T08:13:46.570Z,14.89
2022-10-18T08:16:20.467Z,14.98
2022-10-18T08:18:48.617Z,15.07
2022-10-18T08:21:17.605Z,15.10
2022-10-18T08:23:45.262Z,15.23
2022-10-18T08:26:15.746Z,15.30
2022-10-18T08:28:49.102Z,15.41
2022-10-18T08:31:21.922Z,15.54
2022-10-18T08:33:49.293Z,15.63
2022-10-18T08:36:19.389Z,15.73
2022-10-18T08:38:49.222Z,15.85
2022-10-18T08:41:41.676Z,15.90
2022-10-18T08:44:29.572Z,16.01
2022-10-18T08:47:05.991Z,16.29
2022-10-18T08:49:47.331Z,16.51
2022-10-18T08:55:19.980Z,16.73
2022-10-18T08:57:48.952Z,16.74
2022-10-18T09:00:30.817Z,16.77
2022-10-18T09:03:18.381Z,16.87
2022-10-18T09:05:46.355Z,16.89
2022-10-18T09:08:22.886Z,16.89
2022-10-18T09:14:01.204Z,17.09
2022-10-18T09:16:56.064Z,17.16
2022-10-18T09:19:29.573Z,17.20
2022-10-18T09:22:19.160Z,17.27
2022-10-18T09:25:15.100Z,17.34
2022-10-18T09:27:51.416Z,17.35
2022-10-18T09:30:54.807Z,17.51
2022-10-18T09:33:46.757Z,17.56
2022-10-18T09:36:20.308Z,17.71
2022-10-18T09:38:57.333Z,17.87
2022-10-18T09:41:48.629Z,17.92
2022-10-18T09:44:22.180Z,18.10
2022-10-18T09:46:55.961Z,18.15
2022-10-18T09:49:29.487Z,18.14
2022-10-18T09:51:59.676Z,18.17
2022-10-18T09:54:40.295Z,18.25
2022-10-18T09:57:39.667Z,18.32
2022-10-18T10:00:16.612Z,18.35
2022-10-18T10:02:44.376Z,18.47
2022-10-18T10:05:15.608Z,18.48
2022-10-18T10:07:48.343Z,18.59
2022-10-18T10:10:25.596Z,18.67
2022-10-18T10:13:16.812Z,18.79
2022-10-18T10:16:00.840Z,18.76
2022-10-18T10:18:34.472Z,18.88
2022-10-18T10:21:07.148Z,18.94
2022-10-18T10:23:44.513Z,19.01
2022-10-18T10:26:29.023Z,19.04
2022-10-18T10:28:56.559Z,19.05
2022-10-18T10:31:24.233Z,19.26
2022-10-18T10:34:14.657Z,19.36
2022-10-18T10:36:53.987Z,19.46
2022-10-18T10:39:24.333Z,19.55
2022-10-18T10:41:58.532Z,19.59
2022-10-18T10:44:30.397Z,19.64
2022-10-18T10:46:58.800Z,19.73
2022-10-18T10:49:42.423Z,19.68
2022-10-18T10:52:27.646Z,19.74
2022-10-18T10:55:30.855Z,19.86
2022-10-18T10:57:48.353Z,19.93
2022-10-18T11:00:39.354Z,20.04
2022-10-18T11:03:27.962Z,20.02
2022-10-18T11:05:57.936Z,19.99
2022-10-18T11:08:29.436Z,20.06
2022-10-18T11:11:20.645Z,20.11
2022-10-18T11:14:27.059Z,20.16
2022-10-18T11:16:57.161Z,20.27
2022-10-18T11:20:00.749Z,20.29
2022-10-18T11:22:34.300Z,20.31
2022-10-18T11:25:04.792Z,20.34
2022-10-18T11:27:41.065Z,20.44
2022-10-18T11:30:37.724Z,20.39
2022-10-18T11:34:07.252Z,20.52
2022-10-18T11:37:15.930Z,20.55
2022-10-18T11:40:23.656Z,20.68
2022-10-18T11:43:17.916Z,20.74
2022-10-18T11:46:12.689Z,20.71
2022-10-18T11:49:04.303Z,20.73
2022-10-18T11:52:16.177Z,20.73
2022-10-18T11:55:04.991Z,20.61
2022-10-18T11:57:46.702Z,20.73
2022-10-18T12:00:40.639Z,20.76
2022-10-18T12:03:11.132Z,20.79
2022-10-18T12:05:41.216Z,20.87
2022-10-18T12:08:14.956Z,20.86
2022-10-18T12:11:04.037Z,20.85
2022-10-18T12:13:41.110Z,20.80
2022-10-18T12:16:10.909Z,20.65
2022-10-18T12:18:54.110Z,20.67
2022-10-18T12:21:25.852Z,20.83
2022-10-18T12:23:56.505Z,20.84
2022-10-18T12:26:25.617Z,20.87
2022-10-18T12:29:17.792Z,20.77
2022-10-18T12:31:53.508Z,20.73
2022-10-18T12:34:23.821Z,20.77
2022-10-18T12:37:16.917Z,20.78
2022-10-18T12:40:12.109Z,20.79
2022-10-18T12:42:49.451Z,20.75
2022-10-18T12:45:23.955Z,20.76
2022-10-18T12:47:52.461Z,20.74
2022-10-18T12:50:30.845Z,20.76
2022-10-18T12:53:22.916Z,20.77
2022-10-18T12:55:52.078Z,20.66
2022-10-18T12:58:24.406Z,20.69
2022-10-18T13:00:53.663Z,20.52
2022-10-18T13:03:27.477Z,20.56
2022-10-18T13:06:01.776Z,20.44
2022-10-18T13:08:42.713Z,20.34
2022-10-18T13:11:10.196Z,20.23
2022-10-18T13:13:53.348Z,20.08
2022-10-18T13:16:23.406Z,20.02
2022-10-18T13:19:21.240Z,19.91
2022-10-18T13:22:33.556Z,19.83
2022-10-18T13:25:04.472Z,19.77
2022-10-18T13:27:47.835Z,19.74
2022-10-18T13:30:46.088Z,19.72
2022-10-18T13:33:35.611Z,19.70
2022-10-18T13:36:22.813Z,19.67
2022-10-18T13:38:57.939Z,19.66
2022-10-18T13:41:29.170Z,19.62
2022-10-18T13:44:11.525Z,19.60
2022-10-18T13:46:39.191Z,19.52
2022-10-18T13:49:38.324Z,19.50
2022-10-18T13:52:40.137Z,19.47
2022-10-18T13:55:22.958Z,19.41
2022-10-18T13:58:01.783Z,19.39
2022-10-18T14:00:58.783Z,19.37
2022-10-18T14:04:01.435Z,19.38
2022-10-18T14:06:38.680Z,19.31
2022-10-18T14:09:32.851Z,19.29
2022-10-18T14:12:41.698Z,19.25
2022-10-18T14:15:24.597Z,19.19
2022-10-18T14:18:12.855Z,19.15
2022-10-18T14:21:01.258Z,19.12
2022-10-18T14:23:41.813Z,19.08
2022-10-18T14:26:15.568Z,19.05
2022-10-18T14:29:00.239Z,19.03
2022-10-18T14:31:28.636Z,18.97
2022-10-18T14:33:58.778Z,18.93
2022-10-18T14:36:40.104Z,18.91
2022-10-18T14:39:19.116Z,18.93
2022-10-18T14:41:52.136Z,18.86
2022-10-18T14:44:25.315Z,18.84
2022-10-18T14:46:55.520Z,18.78
2022-10-18T14:49:23.286Z,18.72
2022-10-18T14:51:53.669Z,18.66
2022-10-18T14:54:31.859Z,18.59
2022-10-18T14:57:01.322Z,18.54
2022-10-18T14:59:33.325Z,18.48
2022-10-18T15:02:02.546Z,18.43
2022-10-18T15:04:33.247Z,18.34
2022-10-18T15:07:07.249Z,18.24
2022-10-18T15:09:36.927Z,18.14
2022-10-18T15:12:07.053Z,18.04
2022-10-18T15:14:35.564Z,17.95
2022-10-18T15:17:08.415Z,17.84
2022-10-18T15:19:42.865Z,17.72
2022-10-18T15:25:32.007Z,17.48
2022-10-18T15:28:01.387Z,17.37
2022-10-18T15:30:38.350Z,17.23
2022-10-18T15:33:10.554Z,17.12
2022-10-18T15:35:38.964Z,17.04
2022-10-18T15:38:21.425Z,16.95
2022-10-18T15:40:49.290Z,16.82
2022-10-18T15:43:22.830Z,16.69
2022-10-18T15:45:53.307Z,16.53
2022-10-18T15:48:31.519Z,16.44
2022-10-18T15:51:07.836Z,16.24
2022-10-18T15:53:42.136Z,16.08
2022-10-18T15:56:40.066Z,15.89
2022-10-18T15:59:32.129Z,15.83
2022-10-18T16:02:01.524Z,15.63
2022-10-18T16:04:32.064Z,15.45
2022-10-18T16:07:00.368Z,15.25
2022-10-18T16:09:29.222Z,14.98
2022-10-18T16:11:58.153Z,14.92
2022-10-18T16:14:26.356Z,14.83
2022-10-18T16:16:56.513Z,14.77
2022-10-18T16:19:24.313Z,14.48
2022-10-18T16:21:53.735Z,14.56
2022-10-18T16:24:21.864Z,14.50
2022-10-18T16:26:49.957Z,14.42
2022-10-18T16:29:21.755Z,14.25
2022-10-18T16:31:50.871Z,14.19
2022-10-18T16:34:18.385Z,14.07
2022-10-18T16:36:45.769Z,13.87
2022-10-18T16:39:18.421Z,13.67
2022-10-18T16:41:46.743Z,13.52
2022-10-18T16:44:16.031Z,13.53
2022-10-18T16:46:43.967Z,13.40
2022-10-18T16:51:55.278Z,13.29
2022-10-18T16:54:23.487Z,13.49
2022-10-18T16:56:51.201Z,13.38
2022-10-18T16:59:26.159Z,13.50
2022-10-18T17:01:53.999Z,13.37
2022-10-18T17:04:21.523Z,13.24
2022-10-18T17:06:49.196Z,13.13
2022-10-18T17:09:17.200Z,12.89
2022-10-18T17:11:44.585Z,12.81
2022-10-18T17:14:11.980Z,12.69
2022-10-18T17:16:52.308Z,12.48
2022-10-18T17:19:23.269Z,12.40
2022-10-18T17:21:51.015Z,12.35
2022-10-18T17:24:18.404Z,12.28
2022-10-18T17:26:45.803Z,12.23
2022-10-18T17:29:13.647Z,12.35
2022-10-18T17:31:41.180Z,12.51
2022-10-18T17:34:08.995Z,12.28
2022-10-18T17:36:36.684Z,12.23
2022-10-18T17:39:04.693Z,12.13
2022-10-18T17:41:32.141Z,12.12
2022-10-18T17:44:02.934Z,12.08
2022-10-18T17:46:30.912Z,12.07
2022-10-18T17:48:58.765Z,11.93
2022-10-18T17:51:26.566Z,11.79
2022-10-18T17:53:54.225Z,11.58
2022-10-18T17:56:21.693Z,11.40
2022-10-18T17:58:52.894Z,11.46
2022-10-18T18:01:23.175Z,11.31
2022-10-18T18:03:59.344Z,11.17
2022-10-18T18:06:33.922Z,11.17
2022-10-18T18:09:13.222Z,11.05
2022-10-18T18:11:43.512Z,11.00
2022-10-18T18:14:12.269Z,10.91
2022-10-18T18:16:42.432Z,10.77
2022-10-18T18:19:10.358Z,10.80
2022-10-18T18:21:39.368Z,10.61
2022-10-18T18:24:07.296Z,10.53
2022-10-18T18:26:36.028Z,10.52
2022-10-18T18:29:03.895Z,10.48
2022-10-18T18:31:37.742Z,10.45
2022-10-18T18:34:09.625Z,10.42
2022-10-18T18:36:37.156Z,10.34
2022-10-18T18:39:05.694Z,10.23
2022-10-18T18:41:33.424Z,9.99
2022-10-18T18:44:04.214Z,9.96
2022-10-18T18:46:37.255Z,10.00
2022-10-18T18:49:06.837Z,9.90
2022-10-18T18:51:37.362Z,10.03
2022-10-18T18:54:05.340Z,10.03
2022-10-18T18:56:33.194Z,9.83
2022-10-18T18:59:01.206Z,9.64
2022-10-18T19:01:36.856Z,9.68
2022-10-18T19:04:05.839Z,9.76
2022-10-18T19:06:37.734Z,9.76
2022-10-18T19:09:19.525Z,9.83
2022-10-18T19:11:49.493Z,9.87
2022-10-18T19:14:16.970Z,9.84
2022-10-18T19:16:49.867Z,9.80
2022-10-18T19:19:20.220Z,9.75
2022-10-18T19:21:51.731Z,9.83
2022-10-18T19:24:23.750Z,9.80
2022-10-18T19:26:53.618Z,9.78
2022-10-18T19:29:25.960Z,9.78
2022-10-18T19:31:57.778Z,9.68
2022-10-18T19:34:27.927Z,9.41
2022-10-18T19:36:55.824Z,9.45
2022-10-18T19:39:28.844Z,9.47
2022-10-18T19:41:58.589Z,9.27
2022-10-18T19:44:30.218Z,9.40
2022-10-18T19:46:58.671Z,9.43
2022-10-18T19:49:27.298Z,9.35
2022-10-18T19:51:55.711Z,9.39
2022-10-18T19:54:23.474Z,9.30
2022-10-18T19:56:51.474Z,9.13
2022-10-18T19:59:19.460Z,9.14
2022-10-18T20:01:47.220Z,9.02
2022-10-18T20:04:16.146Z,9.00
2022-10-18T20:06:43.817Z,8.53
2022-10-18T20:09:16.058Z,8.87
2022-10-18T20:11:47.132Z,8.84
2022-10-18T20:14:14.567Z,8.92
2022-10-18T20:16:41.927Z,8.91
2022-10-18T20:19:10.385Z,8.89
2022-10-18T20:21:39.339Z,8.86
2022-10-18T20:24:06.980Z,8.82
2022-10-18T20:26:35.873Z,8.76
2022-10-18T20:29:04.542Z,8.70
2022-10-18T20:31:35.588Z,8.82
2022-10-18T20:34:06.259Z,8.80
2022-10-18T20:36:35.099Z,8.68
2022-10-18T20:39:03.687Z,8.63
2022-10-18T20:41:34.175Z,8.56
2022-10-18T20:44:10.696Z,8.38
2022-10-18T20:46:39.361Z,8.49
2022-10-18T20:49:08.412Z,8.35
2022-10-18T20:51:35.966Z,8.28
2022-10-18T20:56:39.355Z,8.37
2022-10-18T20:59:09.899Z,8.36
2022-10-18T21:01:39.412Z,8.25
2022-10-18T21:04:09.921Z,8.15
2022-10-18T21:06:42.821Z,8.26
2022-10-18T21:09:13.251Z,8.19
2022-10-18T21:11:42.319Z,8.17
2022-10-18T21:14:12.642Z,8.12
2022-10-18T21:16:41.097Z,7.85
2022-10-18T21:19:21.293Z,8.04
2022-10-18T21:21:52.143Z,8.12
2022-10-18T21:24:20.708Z,8.10
2022-10-18T21:26:51.129Z,8.13
2022-10-18T21:29:22.254Z,8.14
2022-10-18T21:31:55.934Z,8.18
2022-10-18T21:34:23.762Z,8.22
2022-10-18T21:36:51.195Z,8.24
2022-10-18T21:39:21.707Z,8.19
2022-10-18T21:41:49.930Z,8.19
2022-10-18T21:44:18.125Z,8.05
2022-10-18T21:46:46.699Z,7.98
2022-10-18T21:49:15.566Z,7.95
2022-10-18T21:51:43.411Z,7.84
2022-10-18T21:54:15.601Z,7.79
2022-10-18T21:56:43.800Z,7.80
2022-10-18T21:59:12.578Z,7.72
2022-10-18T22:01:40.753Z,7.69
2022-10-18T22:04:18.704Z,7.73
2022-10-18T22:06:46.371Z,7.74
2022-10-18T22:09:14.040Z,7.76
2022-10-18T22:11:44.741Z,7.63
2022-10-18T22:14:12.483Z,7.63
2022-10-18T22:16:40.188Z,7.68
2022-10-18T22:19:08.249Z,7.69
2022-10-18T22:21:35.872Z,7.45
2022-10-18T22:24:07.271Z,7.57
2022-10-18T22:26:39.974Z,7.41
2022-10-18T22:29:16.015Z,7.47
2022-10-18T22:31:46.276Z,7.53
2022-10-18T22:34:17.515Z,7.45
2022-10-18T22:36:45.812Z,7.39
2022-10-18T22:39:16.730Z,7.38
2022-10-18T22:41:45.308Z,7.31
2022-10-18T22:44:14.329Z,7.17
2022-10-18T22:46:42.028Z,7.24
2022-10-18T22:49:11.490Z,7.25
2022-10-18T22:51:38.862Z,7.19
2022-10-18T22:54:06.499Z,7.10
2022-10-18T22:56:34.363Z,7.12
2022-10-18T22:59:01.956Z,7.06
2022-10-18T23:01:29.481Z,7.14
2022-10-18T23:03:59.115Z,7.06
2022-10-18T23:06:31.890Z,7.01
2022-10-18T23:09:02.244Z,7.05
2022-10-18T23:11:29.683Z,7.08
2022-10-18T23:13:57.161Z,7.06
2022-10-18T23:16:24.913Z,6.98
2022-10-18T23:18:54.831Z,6.93
2022-10-18T23:21:24.375Z,6.91
2022-10-18T23:23:53.360Z,6.97
2022-10-18T23:26:24.094Z,7.05
2022-10-18T23:28:53.291Z,6.90
2022-10-18T23:31:29.376Z,6.86
2022-10-18T23:33:59.520Z,6.95
2022-10-18T23:36:27.407Z,6.97
2022-10-18T23:38:55.411Z,7.02
2022-10-18T23:41:23.868Z,7.02
2022-10-18T23:43:51.892Z,7.04
2022-10-18T23:46:19.921Z,7.01
2022-10-18T23:48:48.148Z,6.96
2022-10-18T23:51:16.072Z,6.86
2022-10-18T23:53:43.475Z,6.79
2022-10-18T23:56:14.930Z,6.65
2022-10-18T23:58:43.559Z,6.67
